首页
METAR-TAF:

METAR-TAF

机场 :

德雷达瓦, 埃塞俄比亚

纬度: 09-36N, 经度: 041-52E, 海拔: 1146米

METAR: 丢失

时间: 07:08 (04:08 UTC)

预报

该预报发布于6小时和38分钟前的21:30 UTC
预报有效从28日的 00点(UTC)到 29日的 06点(UTC)
风速8节,风向南转南东
能见度10公里或以上
散云层高于2600英尺
少量云层高于10000英尺
成为
从 27日的 24点(UTC)到 28日的 03点(UTC)
风速4节,风向南转南东
多云层高于3000英尺
小雨,

TAF: HADR 272130Z 2800/2906 16008KT 9999 SCT026 FEW100 BECMG 2724/2803 16004KT -RA BKN030

超过4000个机场的气象观测和天气预报(METAR&TAF报告)。

可查询的气象台以黄色和红色小点在地图上表示。

将鼠标移到小点上方,可查看气象台名称。

然后点击查看天气观测和预报。

如需切换地图:点击带黑十字的绿色按钮放大地图;点击带横线的绿色按钮缩小地图;或者点击绿色箭头查看邻近地区的地图。


METAR-TAF: